sensor_id;sensor_type;location;lat;lon;timestamp;P1;durP1;ratioP1;P2;durP2;ratioP2
64595;SDS011;51003;51.628;6.670;2022-08-19T00:01:32;8.93;;;8.03;;
64595;SDS011;51003;51.628;6.670;2022-08-19T00:03:59;12.13;;;8.10;;
64595;SDS011;51003;51.628;6.670;2022-08-19T00:06:26;11.00;;;8.10;;
64595;SDS011;51003;51.628;6.670;2022-08-19T00:08:52;10.33;;;8.73;;
64595;SDS011;51003;51.628;6.670;2022-08-19T00:11:18;8.90;;;8.00;;
64595;SDS011;51003;51.628;6.670;2022-08-19T00:13:44;9.97;;;8.20;;
64595;SDS011;51003;51.628;6.670;2022-08-19T00:16:11;9.63;;;8.63;;
64595;SDS011;51003;51.628;6.670;2022-08-19T00:18:36;10.00;;;8.70;;
64595;SDS011;51003;51.628;6.670;2022-08-19T00:21:02;10.80;;;8.60;;
64595;SDS011;51003;51.628;6.670;2022-08-19T00:23:28;9.17;;;8.20;;
64595;SDS011;51003;51.628;6.670;2022-08-19T00:25:55;11.80;;;8.73;;
64595;SDS011;51003;51.628;6.670;2022-08-19T00:28:20;9.60;;;8.60;;
64595;SDS011;51003;51.628;6.670;2022-08-19T00:30:46;11.03;;;8.23;;
64595;SDS011;51003;51.628;6.670;2022-08-19T00:33:11;9.47;;;8.57;;
64595;SDS011;51003;51.628;6.670;2022-08-19T00:35:38;10.53;;;8.80;;
64595;SDS011;51003;51.628;6.670;2022-08-19T00:38:04;10.43;;;8.60;;
64595;SDS011;51003;51.628;6.670;2022-08-19T00:40:31;9.53;;;8.20;;
64595;SDS011;51003;51.628;6.670;2022-08-19T00:42:57;11.10;;;9.20;;
64595;SDS011;51003;51.628;6.670;2022-08-19T00:45:23;9.77;;;8.43;;
64595;SDS011;51003;51.628;6.670;2022-08-19T00:47:49;10.57;;;9.47;;
64595;SDS011;51003;51.628;6.670;2022-08-19T00:50:15;9.43;;;8.43;;
64595;SDS011;51003;51.628;6.670;2022-08-19T00:52:43;11.63;;;9.07;;
64595;SDS011;51003;51.628;6.670;2022-08-19T00:55:16;10.23;;;8.70;;
64595;SDS011;51003;51.628;6.670;2022-08-19T00:57:46;9.90;;;8.90;;
64595;SDS011;51003;51.628;6.670;2022-08-19T01:00:16;9.97;;;8.90;;
64595;SDS011;51003;51.628;6.670;2022-08-19T01:02:43;10.50;;;8.80;;
64595;SDS011;51003;51.628;6.670;2022-08-19T01:05:10;13.03;;;9.70;;
64595;SDS011;51003;51.628;6.670;2022-08-19T01:07:43;9.30;;;8.40;;
64595;SDS011;51003;51.628;6.670;2022-08-19T01:10:11;9.90;;;9.00;;
64595;SDS011;51003;51.628;6.670;2022-08-19T01:12:38;10.13;;;8.90;;
64595;SDS011;51003;51.628;6.670;2022-08-19T01:15:05;9.13;;;8.23;;
64595;SDS011;51003;51.628;6.670;2022-08-19T01:17:32;9.93;;;8.90;;
64595;SDS011;51003;51.628;6.670;2022-08-19T01:19:58;9.90;;;8.90;;
64595;SDS011;51003;51.628;6.670;2022-08-19T01:24:49;10.77;;;9.00;;
64595;SDS011;51003;51.628;6.670;2022-08-19T01:27:16;9.93;;;8.93;;
64595;SDS011;51003;51.628;6.670;2022-08-19T01:29:42;12.23;;;8.77;;
64595;SDS011;51003;51.628;6.670;2022-08-19T01:32:12;10.00;;;9.00;;
64595;SDS011;51003;51.628;6.670;2022-08-19T01:34:39;10.70;;;9.30;;
64595;SDS011;51003;51.628;6.670;2022-08-19T01:37:06;9.80;;;8.70;;
64595;SDS011;51003;51.628;6.670;2022-08-19T01:39:34;11.63;;;9.10;;
64595;SDS011;51003;51.628;6.670;2022-08-19T01:41:59;11.27;;;9.63;;
64595;SDS011;51003;51.628;6.670;2022-08-19T01:44:28;11.53;;;9.47;;
64595;SDS011;51003;51.628;6.670;2022-08-19T01:46:53;11.37;;;9.33;;
64595;SDS011;51003;51.628;6.670;2022-08-19T01:49:19;10.67;;;8.93;;
64595;SDS011;51003;51.628;6.670;2022-08-19T01:51:46;12.70;;;9.43;;
64595;SDS011;51003;51.628;6.670;2022-08-19T01:54:13;12.03;;;9.07;;
64595;SDS011;51003;51.628;6.670;2022-08-19T01:56:40;10.30;;;8.77;;
64595;SDS011;51003;51.628;6.670;2022-08-19T01:59:08;11.97;;;9.30;;
64595;SDS011;51003;51.628;6.670;2022-08-19T02:01:38;10.70;;;9.60;;
64595;SDS011;51003;51.628;6.670;2022-08-19T02:04:03;10.77;;;9.67;;
64595;SDS011;51003;51.628;6.670;2022-08-19T02:06:30;12.90;;;9.67;;
64595;SDS011;51003;51.628;6.670;2022-08-19T02:08:56;10.70;;;9.60;;
64595;SDS011;51003;51.628;6.670;2022-08-19T02:11:23;9.90;;;9.00;;
64595;SDS011;51003;51.628;6.670;2022-08-19T02:13:51;11.30;;;9.27;;
64595;SDS011;51003;51.628;6.670;2022-08-19T02:16:18;10.87;;;8.93;;
64595;SDS011;51003;51.628;6.670;2022-08-19T02:18:44;12.07;;;9.30;;
64595;SDS011;51003;51.628;6.670;2022-08-19T02:21:09;10.00;;;8.93;;
64595;SDS011;51003;51.628;6.670;2022-08-19T02:23:35;11.50;;;8.83;;
64595;SDS011;51003;51.628;6.670;2022-08-19T02:26:01;9.60;;;8.70;;
64595;SDS011;51003;51.628;6.670;2022-08-19T02:28:26;13.13;;;9.47;;
64595;SDS011;51003;51.628;6.670;2022-08-19T02:30:51;9.70;;;8.70;;
64595;SDS011;51003;51.628;6.670;2022-08-19T02:33:17;10.10;;;8.97;;
64595;SDS011;51003;51.628;6.670;2022-08-19T02:35:43;10.50;;;9.33;;
64595;SDS011;51003;51.628;6.670;2022-08-19T02:38:09;12.03;;;9.83;;
64595;SDS011;51003;51.628;6.670;2022-08-19T02:41:00;10.20;;;8.80;;
64595;SDS011;51003;51.628;6.670;2022-08-19T02:43:30;9.80;;;8.80;;
64595;SDS011;51003;51.628;6.670;2022-08-19T02:45:57;10.80;;;9.47;;
64595;SDS011;51003;51.628;6.670;2022-08-19T02:48:23;10.17;;;9.07;;
64595;SDS011;51003;51.628;6.670;2022-08-19T02:50:50;11.10;;;8.97;;
64595;SDS011;51003;51.628;6.670;2022-08-19T02:53:23;11.60;;;8.70;;
64595;SDS011;51003;51.628;6.670;2022-08-19T02:55:50;10.50;;;9.30;;
64595;SDS011;51003;51.628;6.670;2022-08-19T02:58:16;10.93;;;9.73;;
64595;SDS011;51003;51.628;6.670;2022-08-19T03:00:42;12.60;;;9.80;;
64595;SDS011;51003;51.628;6.670;2022-08-19T03:03:09;11.60;;;9.90;;
64595;SDS011;51003;51.628;6.670;2022-08-19T03:05:35;14.67;;;9.63;;
64595;SDS011;51003;51.628;6.670;2022-08-19T03:08:00;12.40;;;10.53;;
64595;SDS011;51003;51.628;6.670;2022-08-19T03:10:26;11.83;;;10.53;;
64595;SDS011;51003;51.628;6.670;2022-08-19T03:12:52;15.33;;;9.70;;
64595;SDS011;51003;51.628;6.670;2022-08-19T03:15:17;12.90;;;10.97;;
64595;SDS011;51003;51.628;6.670;2022-08-19T03:17:42;12.23;;;9.97;;
64595;SDS011;51003;51.628;6.670;2022-08-19T03:20:08;12.10;;;10.57;;
64595;SDS011;51003;51.628;6.670;2022-08-19T03:22:33;11.13;;;9.97;;
64595;SDS011;51003;51.628;6.670;2022-08-19T03:24:59;11.83;;;9.63;;
64595;SDS011;51003;51.628;6.670;2022-08-19T03:27:24;11.70;;;9.60;;
64595;SDS011;51003;51.628;6.670;2022-08-19T03:29:50;11.33;;;9.83;;
64595;SDS011;51003;51.628;6.670;2022-08-19T03:32:16;11.70;;;9.20;;
64595;SDS011;51003;51.628;6.670;2022-08-19T03:34:41;12.40;;;9.90;;
64595;SDS011;51003;51.628;6.670;2022-08-19T03:37:07;12.73;;;10.47;;
64595;SDS011;51003;51.628;6.670;2022-08-19T03:39:35;11.30;;;9.80;;
64595;SDS011;51003;51.628;6.670;2022-08-19T03:42:01;11.20;;;9.73;;
64595;SDS011;51003;51.628;6.670;2022-08-19T03:44:27;14.27;;;10.60;;
64595;SDS011;51003;51.628;6.670;2022-08-19T03:46:55;16.63;;;9.60;;
64595;SDS011;51003;51.628;6.670;2022-08-19T03:49:23;11.70;;;9.43;;
64595;SDS011;51003;51.628;6.670;2022-08-19T03:51:50;12.47;;;9.70;;
64595;SDS011;51003;51.628;6.670;2022-08-19T03:54:18;12.50;;;9.03;;
64595;SDS011;51003;51.628;6.670;2022-08-19T03:56:45;11.53;;;10.33;;
64595;SDS011;51003;51.628;6.670;2022-08-19T03:59:15;11.33;;;10.13;;
64595;SDS011;51003;51.628;6.670;2022-08-19T04:01:42;11.03;;;9.30;;
64595;SDS011;51003;51.628;6.670;2022-08-19T04:04:08;14.17;;;10.10;;
64595;SDS011;51003;51.628;6.670;2022-08-19T04:06:34;10.90;;;9.70;;
64595;SDS011;51003;51.628;6.670;2022-08-19T04:09:03;12.50;;;10.20;;
64595;SDS011;51003;51.628;6.670;2022-08-19T04:11:31;11.37;;;10.17;;
64595;SDS011;51003;51.628;6.670;2022-08-19T04:13:59;11.27;;;10.03;;
64595;SDS011;51003;51.628;6.670;2022-08-19T04:16:25;10.77;;;9.30;;
64595;SDS011;51003;51.628;6.670;2022-08-19T04:18:55;13.77;;;10.37;;
64595;SDS011;51003;51.628;6.670;2022-08-19T04:21:22;11.93;;;10.30;;
64595;SDS011;51003;51.628;6.670;2022-08-19T04:23:49;10.83;;;9.73;;
64595;SDS011;51003;51.628;6.670;2022-08-19T04:26:15;10.87;;;9.77;;
64595;SDS011;51003;51.628;6.670;2022-08-19T04:28:44;12.43;;;10.00;;
64595;SDS011;51003;51.628;6.670;2022-08-19T04:31:14;11.47;;;9.63;;
64595;SDS011;51003;51.628;6.670;2022-08-19T04:33:41;14.03;;;10.70;;
64595;SDS011;51003;51.628;6.670;2022-08-19T04:36:07;11.47;;;9.23;;
64595;SDS011;51003;51.628;6.670;2022-08-19T04:38:33;13.73;;;9.53;;
64595;SDS011;51003;51.628;6.670;2022-08-19T04:40:58;14.73;;;9.90;;
64595;SDS011;51003;51.628;6.670;2022-08-19T04:43:42;11.47;;;9.80;;
64595;SDS011;51003;51.628;6.670;2022-08-19T04:46:12;10.17;;;9.13;;
64595;SDS011;51003;51.628;6.670;2022-08-19T04:48:38;16.73;;;10.23;;
64595;SDS011;51003;51.628;6.670;2022-08-19T04:51:08;13.53;;;9.33;;
64595;SDS011;51003;51.628;6.670;2022-08-19T04:53:35;12.40;;;9.97;;
64595;SDS011;51003;51.628;6.670;2022-08-19T04:56:07;17.83;;;10.17;;
64595;SDS011;51003;51.628;6.670;2022-08-19T04:58:36;12.00;;;9.20;;
64595;SDS011;51003;51.628;6.670;2022-08-19T05:01:03;11.27;;;9.00;;
64595;SDS011;51003;51.628;6.670;2022-08-19T05:03:29;12.13;;;10.00;;
64595;SDS011;51003;51.628;6.670;2022-08-19T05:05:59;13.57;;;10.13;;
64595;SDS011;51003;51.628;6.670;2022-08-19T05:08:30;12.27;;;9.57;;
64595;SDS011;51003;51.628;6.670;2022-08-19T05:10:56;11.47;;;10.10;;
64595;SDS011;51003;51.628;6.670;2022-08-19T05:13:22;13.70;;;10.90;;
64595;SDS011;51003;51.628;6.670;2022-08-19T05:15:58;15.13;;;10.93;;
64595;SDS011;51003;51.628;6.670;2022-08-19T05:18:24;17.73;;;10.60;;
64595;SDS011;51003;51.628;6.670;2022-08-19T05:21:09;13.07;;;10.57;;
64595;SDS011;51003;51.628;6.670;2022-08-19T05:23:58;14.87;;;11.10;;
64595;SDS011;51003;51.628;6.670;2022-08-19T05:26:23;13.50;;;11.20;;
64595;SDS011;51003;51.628;6.670;2022-08-19T05:28:51;13.63;;;11.27;;
64595;SDS011;51003;51.628;6.670;2022-08-19T05:31:18;16.80;;;11.67;;
64595;SDS011;51003;51.628;6.670;2022-08-19T05:33:44;19.10;;;12.40;;
64595;SDS011;51003;51.628;6.670;2022-08-19T05:36:10;17.17;;;12.00;;
64595;SDS011;51003;51.628;6.670;2022-08-19T05:38:36;15.23;;;11.90;;
64595;SDS011;51003;51.628;6.670;2022-08-19T05:41:12;13.80;;;11.80;;
64595;SDS011;51003;51.628;6.670;2022-08-19T05:43:47;17.90;;;12.60;;
64595;SDS011;51003;51.628;6.670;2022-08-19T05:46:17;16.63;;;12.27;;
64595;SDS011;51003;51.628;6.670;2022-08-19T05:48:43;17.50;;;12.17;;
64595;SDS011;51003;51.628;6.670;2022-08-19T05:51:14;14.03;;;12.50;;
64595;SDS011;51003;51.628;6.670;2022-08-19T05:53:40;18.20;;;13.40;;
64595;SDS011;51003;51.628;6.670;2022-08-19T05:56:09;16.23;;;13.40;;
64595;SDS011;51003;51.628;6.670;2022-08-19T05:58:37;19.50;;;13.80;;
64595;SDS011;51003;51.628;6.670;2022-08-19T06:01:10;15.80;;;12.23;;
64595;SDS011;51003;51.628;6.670;2022-08-19T06:03:37;19.93;;;12.77;;
64595;SDS011;51003;51.628;6.670;2022-08-19T06:06:04;18.20;;;14.00;;
64595;SDS011;51003;51.628;6.670;2022-08-19T06:08:30;22.10;;;14.80;;
64595;SDS011;51003;51.628;6.670;2022-08-19T06:10:55;22.97;;;14.13;;
64595;SDS011;51003;51.628;6.670;2022-08-19T06:13:21;20.10;;;14.57;;
64595;SDS011;51003;51.628;6.670;2022-08-19T06:15:47;19.13;;;14.60;;
64595;SDS011;51003;51.628;6.670;2022-08-19T06:18:13;25.07;;;14.60;;
64595;SDS011;51003;51.628;6.670;2022-08-19T06:20:40;19.50;;;14.77;;
64595;SDS011;51003;51.628;6.670;2022-08-19T06:23:06;22.77;;;16.77;;
64595;SDS011;51003;51.628;6.670;2022-08-19T06:25:32;21.83;;;16.90;;
64595;SDS011;51003;51.628;6.670;2022-08-19T06:27:57;23.97;;;18.40;;
64595;SDS011;51003;51.628;6.670;2022-08-19T06:30:23;24.10;;;18.27;;
64595;SDS011;51003;51.628;6.670;2022-08-19T06:32:48;27.10;;;18.90;;
64595;SDS011;51003;51.628;6.670;2022-08-19T06:35:14;33.33;;;22.80;;
64595;SDS011;51003;51.628;6.670;2022-08-19T06:37:40;30.90;;;22.30;;
64595;SDS011;51003;51.628;6.670;2022-08-19T06:40:06;31.77;;;22.70;;
64595;SDS011;51003;51.628;6.670;2022-08-19T06:42:33;31.37;;;22.17;;
64595;SDS011;51003;51.628;6.670;2022-08-19T06:44:59;40.10;;;24.90;;
64595;SDS011;51003;51.628;6.670;2022-08-19T06:47:28;33.53;;;23.63;;
64595;SDS011;51003;51.628;6.670;2022-08-19T06:49:55;36.87;;;25.50;;
64595;SDS011;51003;51.628;6.670;2022-08-19T06:52:25;38.77;;;26.83;;
64595;SDS011;51003;51.628;6.670;2022-08-19T06:54:50;42.57;;;28.30;;
64595;SDS011;51003;51.628;6.670;2022-08-19T06:57:15;44.13;;;28.30;;
64595;SDS011;51003;51.628;6.670;2022-08-19T06:59:41;44.00;;;28.67;;
64595;SDS011;51003;51.628;6.670;2022-08-19T07:02:06;42.30;;;29.00;;
64595;SDS011;51003;51.628;6.670;2022-08-19T07:04:34;42.37;;;29.70;;
64595;SDS011;51003;51.628;6.670;2022-08-19T07:07:04;45.77;;;30.80;;
64595;SDS011;51003;51.628;6.670;2022-08-19T07:09:35;44.43;;;30.20;;
64595;SDS011;51003;51.628;6.670;2022-08-19T07:12:02;50.33;;;31.90;;
64595;SDS011;51003;51.628;6.670;2022-08-19T07:14:28;50.03;;;31.93;;
64595;SDS011;51003;51.628;6.670;2022-08-19T07:16:54;48.73;;;31.53;;
64595;SDS011;51003;51.628;6.670;2022-08-19T07:19:21;49.47;;;32.13;;
64595;SDS011;51003;51.628;6.670;2022-08-19T07:21:48;43.50;;;30.80;;
64595;SDS011;51003;51.628;6.670;2022-08-19T07:24:16;48.80;;;30.63;;
64595;SDS011;51003;51.628;6.670;2022-08-19T07:26:42;41.17;;;28.47;;
64595;SDS011;51003;51.628;6.670;2022-08-19T07:29:08;52.03;;;31.40;;
64595;SDS011;51003;51.628;6.670;2022-08-19T07:31:34;47.50;;;30.87;;
64595;SDS011;51003;51.628;6.670;2022-08-19T07:34:05;44.33;;;27.97;;
64595;SDS011;51003;51.628;6.670;2022-08-19T07:36:33;44.23;;;27.93;;
64595;SDS011;51003;51.628;6.670;2022-08-19T07:39:00;41.73;;;29.47;;
64595;SDS011;51003;51.628;6.670;2022-08-19T07:41:29;46.97;;;28.57;;
64595;SDS011;51003;51.628;6.670;2022-08-19T07:43:56;42.53;;;28.37;;
64595;SDS011;51003;51.628;6.670;2022-08-19T07:46:23;40.93;;;26.70;;
64595;SDS011;51003;51.628;6.670;2022-08-19T07:48:48;42.17;;;28.30;;
64595;SDS011;51003;51.628;6.670;2022-08-19T07:51:16;41.10;;;27.17;;
64595;SDS011;51003;51.628;6.670;2022-08-19T07:53:44;38.50;;;27.37;;
64595;SDS011;51003;51.628;6.670;2022-08-19T07:56:10;37.50;;;26.20;;
64595;SDS011;51003;51.628;6.670;2022-08-19T07:58:37;36.63;;;25.53;;
64595;SDS011;51003;51.628;6.670;2022-08-19T08:01:06;36.17;;;24.60;;
64595;SDS011;51003;51.628;6.670;2022-08-19T08:03:31;43.00;;;23.90;;
64595;SDS011;51003;51.628;6.670;2022-08-19T08:06:16;43.93;;;23.67;;
64595;SDS011;51003;51.628;6.670;2022-08-19T08:09:00;34.90;;;22.53;;
64595;SDS011;51003;51.628;6.670;2022-08-19T08:11:37;43.10;;;22.93;;
64595;SDS011;51003;51.628;6.670;2022-08-19T08:14:04;30.57;;;22.13;;
64595;SDS011;51003;51.628;6.670;2022-08-19T08:16:33;35.80;;;22.30;;
64595;SDS011;51003;51.628;6.670;2022-08-19T08:19:00;32.50;;;22.23;;
64595;SDS011;51003;51.628;6.670;2022-08-19T08:21:25;30.87;;;22.50;;
64595;SDS011;51003;51.628;6.670;2022-08-19T08:23:51;32.50;;;23.90;;
64595;SDS011;51003;51.628;6.670;2022-08-19T08:26:20;31.50;;;24.27;;
64595;SDS011;51003;51.628;6.670;2022-08-19T08:28:45;30.57;;;23.30;;
64595;SDS011;51003;51.628;6.670;2022-08-19T08:31:12;35.20;;;25.70;;
64595;SDS011;51003;51.628;6.670;2022-08-19T08:33:37;35.57;;;25.70;;
64595;SDS011;51003;51.628;6.670;2022-08-19T08:36:06;33.37;;;23.67;;
64595;SDS011;51003;51.628;6.670;2022-08-19T08:38:33;38.63;;;23.90;;
64595;SDS011;51003;51.628;6.670;2022-08-19T08:41:05;32.73;;;24.10;;
64595;SDS011;51003;51.628;6.670;2022-08-19T08:43:44;40.57;;;26.60;;
64595;SDS011;51003;51.628;6.670;2022-08-19T08:46:12;36.20;;;24.60;;
64595;SDS011;51003;51.628;6.670;2022-08-19T08:51:24;31.10;;;24.13;;
64595;SDS011;51003;51.628;6.670;2022-08-19T08:53:52;28.10;;;22.33;;
64595;SDS011;51003;51.628;6.670;2022-08-19T08:56:18;28.63;;;19.80;;
64595;SDS011;51003;51.628;6.670;2022-08-19T08:59:00;34.17;;;22.13;;
64595;SDS011;51003;51.628;6.670;2022-08-19T09:01:32;28.07;;;22.27;;
64595;SDS011;51003;51.628;6.670;2022-08-19T09:03:57;26.97;;;21.30;;
64595;SDS011;51003;51.628;6.670;2022-08-19T09:09:17;24.53;;;18.90;;
64595;SDS011;51003;51.628;6.670;2022-08-19T09:14:14;29.70;;;20.30;;
64595;SDS011;51003;51.628;6.670;2022-08-19T09:16:59;27.10;;;19.27;;
64595;SDS011;51003;51.628;6.670;2022-08-19T09:19:28;22.40;;;17.23;;
64595;SDS011;51003;51.628;6.670;2022-08-19T09:21:54;20.20;;;16.77;;
64595;SDS011;51003;51.628;6.670;2022-08-19T09:24:19;18.90;;;16.40;;
64595;SDS011;51003;51.628;6.670;2022-08-19T09:26:45;17.83;;;15.83;;
64595;SDS011;51003;51.628;6.670;2022-08-19T09:29:11;18.77;;;16.20;;
64595;SDS011;51003;51.628;6.670;2022-08-19T09:31:36;20.60;;;18.33;;
64595;SDS011;51003;51.628;6.670;2022-08-19T09:34:03;20.07;;;17.87;;
64595;SDS011;51003;51.628;6.670;2022-08-19T09:36:29;23.87;;;17.50;;
64595;SDS011;51003;51.628;6.670;2022-08-19T09:38:57;22.50;;;18.03;;
64595;SDS011;51003;51.628;6.670;2022-08-19T09:41:24;22.47;;;18.97;;
64595;SDS011;51003;51.628;6.670;2022-08-19T09:43:50;20.10;;;18.00;;
64595;SDS011;51003;51.628;6.670;2022-08-19T09:46:21;23.47;;;20.20;;
64595;SDS011;51003;51.628;6.670;2022-08-19T09:48:47;26.57;;;19.23;;
64595;SDS011;51003;51.628;6.670;2022-08-19T09:51:14;24.40;;;20.20;;
64595;SDS011;51003;51.628;6.670;2022-08-19T09:53:41;25.30;;;19.87;;
64595;SDS011;51003;51.628;6.670;2022-08-19T09:56:08;27.10;;;19.50;;
64595;SDS011;51003;51.628;6.670;2022-08-19T09:58:34;32.63;;;19.83;;
64595;SDS011;51003;51.628;6.670;2022-08-19T10:01:00;23.70;;;17.13;;
64595;SDS011;51003;51.628;6.670;2022-08-19T10:03:27;24.60;;;20.53;;
64595;SDS011;51003;51.628;6.670;2022-08-19T10:05:53;22.23;;;19.60;;
64595;SDS011;51003;51.628;6.670;2022-08-19T10:08:20;25.60;;;21.53;;
64595;SDS011;51003;51.628;6.670;2022-08-19T10:10:47;25.57;;;20.20;;
64595;SDS011;51003;51.628;6.670;2022-08-19T10:13:14;24.07;;;20.63;;
64595;SDS011;51003;51.628;6.670;2022-08-19T10:15:40;26.63;;;21.80;;
64595;SDS011;51003;51.628;6.670;2022-08-19T10:18:06;23.57;;;19.53;;
64595;SDS011;51003;51.628;6.670;2022-08-19T10:20:32;22.60;;;19.03;;
64595;SDS011;51003;51.628;6.670;2022-08-19T10:22:57;27.67;;;19.80;;
64595;SDS011;51003;51.628;6.670;2022-08-19T10:25:24;22.10;;;19.10;;
64595;SDS011;51003;51.628;6.670;2022-08-19T10:27:51;27.70;;;21.80;;
64595;SDS011;51003;51.628;6.670;2022-08-19T10:30:17;27.10;;;21.73;;
64595;SDS011;51003;51.628;6.670;2022-08-19T10:32:43;26.97;;;21.97;;
64595;SDS011;51003;51.628;6.670;2022-08-19T10:35:12;25.77;;;20.00;;
64595;SDS011;51003;51.628;6.670;2022-08-19T10:37:38;27.50;;;23.10;;
64595;SDS011;51003;51.628;6.670;2022-08-19T10:40:05;25.40;;;20.83;;
64595;SDS011;51003;51.628;6.670;2022-08-19T10:42:31;21.10;;;18.13;;
64595;SDS011;51003;51.628;6.670;2022-08-19T10:44:57;19.53;;;17.43;;
64595;SDS011;51003;51.628;6.670;2022-08-19T10:47:22;16.77;;;14.90;;
64595;SDS011;51003;51.628;6.670;2022-08-19T10:49:48;16.20;;;14.50;;
64595;SDS011;51003;51.628;6.670;2022-08-19T10:52:32;15.73;;;13.77;;
64595;SDS011;51003;51.628;6.670;2022-08-19T10:54:58;14.27;;;12.77;;
64595;SDS011;51003;51.628;6.670;2022-08-19T10:57:46;19.43;;;13.40;;
64595;SDS011;51003;51.628;6.670;2022-08-19T11:00:11;13.37;;;12.07;;
64595;SDS011;51003;51.628;6.670;2022-08-19T11:02:38;13.17;;;11.87;;
64595;SDS011;51003;51.628;6.670;2022-08-19T11:05:04;15.17;;;12.83;;
64595;SDS011;51003;51.628;6.670;2022-08-19T11:07:31;14.47;;;12.40;;
64595;SDS011;51003;51.628;6.670;2022-08-19T11:09:57;12.80;;;11.50;;
64595;SDS011;51003;51.628;6.670;2022-08-19T11:12:22;10.57;;;9.60;;
64595;SDS011;51003;51.628;6.670;2022-08-19T11:14:49;10.87;;;9.77;;
64595;SDS011;51003;51.628;6.670;2022-08-19T11:17:15;12.50;;;10.57;;
64595;SDS011;51003;51.628;6.670;2022-08-19T11:19:40;10.50;;;9.40;;
64595;SDS011;51003;51.628;6.670;2022-08-19T11:22:08;9.77;;;8.97;;
64595;SDS011;51003;51.628;6.670;2022-08-19T11:24:34;9.37;;;8.47;;
64595;SDS011;51003;51.628;6.670;2022-08-19T11:27:02;10.60;;;7.87;;
64595;SDS011;51003;51.628;6.670;2022-08-19T11:29:29;8.30;;;7.50;;
64595;SDS011;51003;51.628;6.670;2022-08-19T11:31:55;8.13;;;7.43;;
64595;SDS011;51003;51.628;6.670;2022-08-19T11:34:22;9.27;;;8.53;;
64595;SDS011;51003;51.628;6.670;2022-08-19T11:36:52;11.30;;;8.00;;
64595;SDS011;51003;51.628;6.670;2022-08-19T11:39:20;8.47;;;7.60;;
64595;SDS011;51003;51.628;6.670;2022-08-19T11:41:47;8.23;;;7.00;;
64595;SDS011;51003;51.628;6.670;2022-08-19T11:44:12;7.83;;;7.23;;
64595;SDS011;51003;51.628;6.670;2022-08-19T11:46:39;7.40;;;6.70;;
64595;SDS011;51003;51.628;6.670;2022-08-19T11:49:06;7.70;;;7.00;;
64595;SDS011;51003;51.628;6.670;2022-08-19T11:51:32;7.10;;;6.50;;
64595;SDS011;51003;51.628;6.670;2022-08-19T11:53:59;12.93;;;7.87;;
64595;SDS011;51003;51.628;6.670;2022-08-19T11:56:25;10.57;;;7.93;;
64595;SDS011;51003;51.628;6.670;2022-08-19T11:58:51;7.00;;;6.30;;
64595;SDS011;51003;51.628;6.670;2022-08-19T12:01:18;6.07;;;5.57;;
64595;SDS011;51003;51.628;6.670;2022-08-19T12:03:45;8.07;;;7.30;;
64595;SDS011;51003;51.628;6.670;2022-08-19T12:06:13;25.80;;;6.70;;
64595;SDS011;51003;51.628;6.670;2022-08-19T12:08:44;30.97;;;7.00;;
64595;SDS011;51003;51.628;6.670;2022-08-19T12:11:10;8.38;;;7.57;;
64595;SDS011;51003;51.628;6.670;2022-08-19T12:13:37;8.80;;;5.83;;
64595;SDS011;51003;51.628;6.670;2022-08-19T12:16:07;6.65;;;6.07;;
64595;SDS011;51003;51.628;6.670;2022-08-19T12:18:38;5.70;;;5.30;;
64595;SDS011;51003;51.628;6.670;2022-08-19T12:21:06;6.35;;;5.95;;
64595;SDS011;51003;51.628;6.670;2022-08-19T12:23:31;8.15;;;6.72;;
64595;SDS011;51003;51.628;6.670;2022-08-19T12:25:57;6.53;;;6.03;;
64595;SDS011;51003;51.628;6.670;2022-08-19T12:28:23;5.40;;;4.90;;
64595;SDS011;51003;51.628;6.670;2022-08-19T12:30:49;7.05;;;6.47;;
64595;SDS011;51003;51.628;6.670;2022-08-19T12:33:16;6.57;;;6.15;;
64595;SDS011;51003;51.628;6.670;2022-08-19T12:35:43;6.53;;;6.03;;
64595;SDS011;51003;51.628;6.670;2022-08-19T12:38:10;6.45;;;6.05;;
64595;SDS011;51003;51.628;6.670;2022-08-19T12:40:36;5.72;;;5.32;;
64595;SDS011;51003;51.628;6.670;2022-08-19T12:43:02;5.60;;;5.28;;
64595;SDS011;51003;51.628;6.670;2022-08-19T12:45:27;6.32;;;5.70;;
64595;SDS011;51003;51.628;6.670;2022-08-19T12:47:53;6.43;;;5.82;;
64595;SDS011;51003;51.628;6.670;2022-08-19T12:50:19;7.53;;;6.63;;
64595;SDS011;51003;51.628;6.670;2022-08-19T12:52:46;6.88;;;6.25;;
64595;SDS011;51003;51.628;6.670;2022-08-19T12:55:13;6.22;;;5.75;;
64595;SDS011;51003;51.628;6.670;2022-08-19T12:57:38;8.00;;;7.40;;
64595;SDS011;51003;51.628;6.670;2022-08-19T13:00:05;8.32;;;7.75;;
64595;SDS011;51003;51.628;6.670;2022-08-19T13:02:34;7.80;;;7.20;;
64595;SDS011;51003;51.628;6.670;2022-08-19T13:05:01;7.50;;;6.77;;
64595;SDS011;51003;51.628;6.670;2022-08-19T13:07:26;7.97;;;7.47;;
64595;SDS011;51003;51.628;6.670;2022-08-19T13:09:52;8.70;;;7.90;;
64595;SDS011;51003;51.628;6.670;2022-08-19T13:12:17;7.70;;;7.00;;
64595;SDS011;51003;51.628;6.670;2022-08-19T13:14:45;8.47;;;7.57;;
64595;SDS011;51003;51.628;6.670;2022-08-19T13:17:14;11.17;;;10.20;;
64595;SDS011;51003;51.628;6.670;2022-08-19T13:19:40;11.87;;;10.77;;
64595;SDS011;51003;51.628;6.670;2022-08-19T13:22:06;12.17;;;11.07;;
64595;SDS011;51003;51.628;6.670;2022-08-19T13:24:31;15.53;;;12.00;;
64595;SDS011;51003;51.628;6.670;2022-08-19T13:26:58;12.10;;;11.00;;
64595;SDS011;51003;51.628;6.670;2022-08-19T13:29:24;12.40;;;11.30;;
64595;SDS011;51003;51.628;6.670;2022-08-19T13:32:08;14.97;;;13.47;;
64595;SDS011;51003;51.628;6.670;2022-08-19T13:34:52;13.50;;;12.40;;
64595;SDS011;51003;51.628;6.670;2022-08-19T13:37:17;13.63;;;12.43;;
64595;SDS011;51003;51.628;6.670;2022-08-19T13:40:03;11.07;;;10.10;;
64595;SDS011;51003;51.628;6.670;2022-08-19T13:42:28;14.30;;;11.10;;
64595;SDS011;51003;51.628;6.670;2022-08-19T13:44:54;12.53;;;11.43;;
64595;SDS011;51003;51.628;6.670;2022-08-19T13:47:20;14.27;;;12.77;;
64595;SDS011;51003;51.628;6.670;2022-08-19T13:49:45;12.20;;;11.20;;
64595;SDS011;51003;51.628;6.670;2022-08-19T13:52:11;15.03;;;11.70;;
64595;SDS011;51003;51.628;6.670;2022-08-19T13:54:36;11.97;;;10.97;;
64595;SDS011;51003;51.628;6.670;2022-08-19T13:57:02;10.80;;;9.90;;
64595;SDS011;51003;51.628;6.670;2022-08-19T13:59:27;10.93;;;9.87;;
64595;SDS011;51003;51.628;6.670;2022-08-19T14:01:56;10.47;;;9.57;;
64595;SDS011;51003;51.628;6.670;2022-08-19T14:04:23;9.77;;;9.00;;
64595;SDS011;51003;51.628;6.670;2022-08-19T14:06:48;10.47;;;9.17;;
64595;SDS011;51003;51.628;6.670;2022-08-19T14:09:13;11.20;;;10.20;;
64595;SDS011;51003;51.628;6.670;2022-08-19T14:11:39;9.40;;;8.50;;
64595;SDS011;51003;51.628;6.670;2022-08-19T14:14:04;12.57;;;9.67;;
64595;SDS011;51003;51.628;6.670;2022-08-19T14:16:30;9.30;;;8.50;;
64595;SDS011;51003;51.628;6.670;2022-08-19T14:18:55;9.83;;;8.93;;
64595;SDS011;51003;51.628;6.670;2022-08-19T14:21:21;11.50;;;10.40;;
64595;SDS011;51003;51.628;6.670;2022-08-19T14:23:48;11.10;;;10.03;;
64595;SDS011;51003;51.628;6.670;2022-08-19T14:26:15;11.63;;;10.53;;
64595;SDS011;51003;51.628;6.670;2022-08-19T14:28:42;12.27;;;10.93;;
64595;SDS011;51003;51.628;6.670;2022-08-19T14:31:11;12.47;;;11.30;;
64595;SDS011;51003;51.628;6.670;2022-08-19T14:33:38;11.13;;;10.00;;
64595;SDS011;51003;51.628;6.670;2022-08-19T14:36:04;10.00;;;9.17;;
64595;SDS011;51003;51.628;6.670;2022-08-19T14:38:29;9.80;;;9.00;;
64595;SDS011;51003;51.628;6.670;2022-08-19T14:41:04;10.60;;;9.50;;
64595;SDS011;51003;51.628;6.670;2022-08-19T14:43:38;12.00;;;8.40;;